sensor_id;sensor_type;location;lat;lon;timestamp;pressure;altitude;pressure_sealevel;temperature;humidity
60371;BME280;48550;40.588;49.684;2023-04-25T00:02:01;100920.06;;;13.55;100.00
60371;BME280;48550;40.588;49.684;2023-04-25T00:04:29;100917.63;;;13.53;100.00
60371;BME280;48550;40.588;49.684;2023-04-25T00:06:55;100920.16;;;13.60;100.00
60371;BME280;48550;40.588;49.684;2023-04-25T00:09:22;100912.88;;;13.60;100.00
60371;BME280;48550;40.588;49.684;2023-04-25T00:11:48;100907.22;;;13.62;100.00
60371;BME280;48550;40.588;49.684;2023-04-25T00:14:14;100899.72;;;13.64;100.00
60371;BME280;48550;40.588;49.684;2023-04-25T00:16:39;100881.09;;;13.62;100.00
60371;BME280;48550;40.588;49.684;2023-04-25T00:19:06;100881.66;;;13.64;100.00
60371;BME280;48550;40.588;49.684;2023-04-25T00:21:33;100875.63;;;13.57;100.00
60371;BME280;48550;40.588;49.684;2023-04-25T00:23:59;100892.63;;;13.58;100.00
60371;BME280;48550;40.588;49.684;2023-04-25T00:26:27;100904.28;;;13.63;100.00
60371;BME280;48550;40.588;49.684;2023-04-25T00:28:52;100884.03;;;13.61;100.00
60371;BME280;48550;40.588;49.684;2023-04-25T00:31:18;100885.84;;;13.55;100.00
60371;BME280;48550;40.588;49.684;2023-04-25T00:33:44;100892.88;;;13.56;100.00
60371;BME280;48550;40.588;49.684;2023-04-25T00:36:10;100903.66;;;13.56;100.00
60371;BME280;48550;40.588;49.684;2023-04-25T00:38:36;100926.84;;;13.57;100.00
60371;BME280;48550;40.588;49.684;2023-04-25T00:41:05;100940.91;;;13.59;100.00
60371;BME280;48550;40.588;49.684;2023-04-25T00:43:32;100950.63;;;13.60;100.00
60371;BME280;48550;40.588;49.684;2023-04-25T00:46:00;100941.22;;;13.63;100.00
60371;BME280;48550;40.588;49.684;2023-04-25T00:48:26;100945.81;;;13.62;100.00
60371;BME280;48550;40.588;49.684;2023-04-25T00:50:54;100946.94;;;13.66;100.00
60371;BME280;48550;40.588;49.684;2023-04-25T00:53:23;100947.50;;;13.68;100.00
60371;BME280;48550;40.588;49.684;2023-04-25T00:55:50;100928.88;;;13.67;100.00
60371;BME280;48550;40.588;49.684;2023-04-25T00:58:19;100938.84;;;13.66;100.00
60371;BME280;48550;40.588;49.684;2023-04-25T01:00:47;100932.97;;;13.70;100.00
60371;BME280;48550;40.588;49.684;2023-04-25T01:03:14;100934.09;;;13.74;100.00
60371;BME280;48550;40.588;49.684;2023-04-25T01:05:41;100935.16;;;13.73;100.00
60371;BME280;48550;40.588;49.684;2023-04-25T01:08:08;100946.84;;;13.78;100.00
60371;BME280;48550;40.588;49.684;2023-04-25T01:10:34;100941.78;;;13.82;100.00
60371;BME280;48550;40.588;49.684;2023-04-25T01:12:59;100941.28;;;13.85;100.00
60371;BME280;48550;40.588;49.684;2023-04-25T01:15:25;100946.16;;;13.88;100.00
60371;BME280;48550;40.588;49.684;2023-04-25T01:17:51;100942.47;;;13.94;100.00
60371;BME280;48550;40.588;49.684;2023-04-25T01:20:21;100949.25;;;13.96;100.00
60371;BME280;48550;40.588;49.684;2023-04-25T01:22:48;100951.69;;;13.98;100.00
60371;BME280;48550;40.588;49.684;2023-04-25T01:25:14;100930.19;;;14.03;100.00
60371;BME280;48550;40.588;49.684;2023-04-25T01:27:40;100902.69;;;14.06;100.00
60371;BME280;48550;40.588;49.684;2023-04-25T01:30:07;100895.72;;;14.10;100.00
60371;BME280;48550;40.588;49.684;2023-04-25T01:32:33;100888.78;;;14.14;100.00
60371;BME280;48550;40.588;49.684;2023-04-25T01:35:09;100898.31;;;14.22;100.00
60371;BME280;48550;40.588;49.684;2023-04-25T01:37:39;100903.22;;;14.25;100.00
60371;BME280;48550;40.588;49.684;2023-04-25T01:40:07;100924.31;;;14.28;100.00
60371;BME280;48550;40.588;49.684;2023-04-25T01:42:35;100943.78;;;14.30;100.00
60371;BME280;48550;40.588;49.684;2023-04-25T01:45:01;100966.44;;;14.29;100.00
60371;BME280;48550;40.588;49.684;2023-04-25T01:47:27;100968.38;;;14.34;100.00
60371;BME280;48550;40.588;49.684;2023-04-25T01:49:53;100963.88;;;14.39;100.00
60371;BME280;48550;40.588;49.684;2023-04-25T01:52:19;100971.56;;;14.47;100.00
60371;BME280;48550;40.588;49.684;2023-04-25T01:54:45;100958.34;;;14.51;100.00
60371;BME280;48550;40.588;49.684;2023-04-25T01:57:11;100955.22;;;14.59;100.00
60371;BME280;48550;40.588;49.684;2023-04-25T01:59:37;100930.91;;;14.59;100.00
60371;BME280;48550;40.588;49.684;2023-04-25T02:02:03;100929.31;;;14.63;100.00
60371;BME280;48550;40.588;49.684;2023-04-25T02:04:30;100934.78;;;14.68;100.00
60371;BME280;48550;40.588;49.684;2023-04-25T02:06:55;100927.28;;;14.75;100.00
60371;BME280;48550;40.588;49.684;2023-04-25T02:09:22;100941.09;;;14.79;100.00
60371;BME280;48550;40.588;49.684;2023-04-25T02:11:47;100946.28;;;14.85;100.00
60371;BME280;48550;40.588;49.684;2023-04-25T02:14:13;100950.41;;;14.88;100.00
60371;BME280;48550;40.588;49.684;2023-04-25T02:16:39;100954.47;;;14.90;100.00
60371;BME280;48550;40.588;49.684;2023-04-25T02:19:05;100955.59;;;14.94;100.00
60371;BME280;48550;40.588;49.684;2023-04-25T02:21:32;100949.69;;;14.98;100.00
60371;BME280;48550;40.588;49.684;2023-04-25T02:23:57;100938.91;;;15.03;100.00
60371;BME280;48550;40.588;49.684;2023-04-25T02:26:23;100932.75;;;15.07;100.00
60371;BME280;48550;40.588;49.684;2023-04-25T02:28:50;100946.56;;;15.11;100.00
60371;BME280;48550;40.588;49.684;2023-04-25T02:31:16;100947.38;;;15.11;100.00
60371;BME280;48550;40.588;49.684;2023-04-25T02:33:42;100952.53;;;15.13;100.00
60371;BME280;48550;40.588;49.684;2023-04-25T02:36:08;100937.97;;;15.19;100.00
60371;BME280;48550;40.588;49.684;2023-04-25T02:38:34;100903.13;;;15.22;100.00
60371;BME280;48550;40.588;49.684;2023-04-25T02:41:00;100864.50;;;15.27;100.00
60371;BME280;48550;40.588;49.684;2023-04-25T02:43:25;100836.16;;;15.35;100.00
60371;BME280;48550;40.588;49.684;2023-04-25T02:45:51;100820.47;;;15.37;100.00
60371;BME280;48550;40.588;49.684;2023-04-25T02:48:17;100789.41;;;15.44;100.00
60371;BME280;48550;40.588;49.684;2023-04-25T02:50:43;100795.25;;;15.63;100.00
60371;BME280;48550;40.588;49.684;2023-04-25T02:53:08;100809.59;;;15.64;100.00
60371;BME280;48550;40.588;49.684;2023-04-25T02:55:34;100809.63;;;15.74;100.00
60371;BME280;48550;40.588;49.684;2023-04-25T02:58:00;100822.06;;;15.75;100.00
60371;BME280;48550;40.588;49.684;2023-04-25T03:00:25;100821.00;;;15.76;100.00
60371;BME280;48550;40.588;49.684;2023-04-25T03:02:51;100796.66;;;15.81;100.00
60371;BME280;48550;40.588;49.684;2023-04-25T03:05:17;100795.31;;;15.83;100.00
60371;BME280;48550;40.588;49.684;2023-04-25T03:07:43;100793.97;;;15.91;100.00
60371;BME280;48550;40.588;49.684;2023-04-25T03:10:10;100807.00;;;15.94;100.00
60371;BME280;48550;40.588;49.684;2023-04-25T03:12:36;100819.97;;;15.92;100.00
60371;BME280;48550;40.588;49.684;2023-04-25T03:15:03;100827.56;;;15.95;100.00
60371;BME280;48550;40.588;49.684;2023-04-25T03:17:29;100826.22;;;15.98;100.00
60371;BME280;48550;40.588;49.684;2023-04-25T03:19:55;100831.91;;;15.96;100.00
60371;BME280;48550;40.588;49.684;2023-04-25T03:22:21;100845.69;;;15.95;100.00
60371;BME280;48550;40.588;49.684;2023-04-25T03:24:47;100841.94;;;16.06;100.00
60371;BME280;48550;40.588;49.684;2023-04-25T03:27:13;100836.53;;;16.06;100.00
60371;BME280;48550;40.588;49.684;2023-04-25T03:29:39;100842.75;;;16.06;100.00
60371;BME280;48550;40.588;49.684;2023-04-25T03:32:05;100857.97;;;16.17;100.00
60371;BME280;48550;40.588;49.684;2023-04-25T03:34:31;100857.44;;;16.26;100.00
60371;BME280;48550;40.588;49.684;2023-04-25T03:36:57;100866.94;;;16.33;100.00
60371;BME280;48550;40.588;49.684;2023-04-25T03:39:23;100884.88;;;16.44;100.00
60371;BME280;48550;40.588;49.684;2023-04-25T03:41:48;100899.25;;;16.60;100.00
60371;BME280;48550;40.588;49.684;2023-04-25T03:44:14;100908.00;;;16.77;100.00
60371;BME280;48550;40.588;49.684;2023-04-25T03:46:40;100912.63;;;17.02;100.00
60371;BME280;48550;40.588;49.684;2023-04-25T03:49:06;100919.44;;;17.15;100.00
60371;BME280;48550;40.588;49.684;2023-04-25T03:51:32;100920.78;;;17.33;100.00
60371;BME280;48550;40.588;49.684;2023-04-25T03:53:57;100909.09;;;17.37;100.00
60371;BME280;48550;40.588;49.684;2023-04-25T03:56:23;100907.50;;;17.31;100.00
60371;BME280;48550;40.588;49.684;2023-04-25T03:58:49;100922.13;;;17.30;100.00
60371;BME280;48550;40.588;49.684;2023-04-25T04:01:15;100945.72;;;17.45;100.00
60371;BME280;48550;40.588;49.684;2023-04-25T04:03:41;100951.16;;;17.45;100.00
60371;BME280;48550;40.588;49.684;2023-04-25T04:06:07;100943.84;;;17.40;100.00
60371;BME280;48550;40.588;49.684;2023-04-25T04:08:34;100947.09;;;17.42;100.00
60371;BME280;48550;40.588;49.684;2023-04-25T04:11:00;100960.66;;;17.47;100.00
60371;BME280;48550;40.588;49.684;2023-04-25T04:13:26;100966.06;;;17.47;100.00
60371;BME280;48550;40.588;49.684;2023-04-25T04:15:52;100963.91;;;17.55;100.00
60371;BME280;48550;40.588;49.684;2023-04-25T04:18:18;100974.22;;;17.58;100.00
60371;BME280;48550;40.588;49.684;2023-04-25T04:20:44;100978.28;;;17.45;100.00
60371;BME280;48550;40.588;49.684;2023-04-25T04:23:10;100976.66;;;17.59;100.00
60371;BME280;48550;40.588;49.684;2023-04-25T04:25:36;100986.16;;;17.52;100.00
60371;BME280;48550;40.588;49.684;2023-04-25T04:28:02;100986.69;;;17.59;100.00
60371;BME280;48550;40.588;49.684;2023-04-25T04:30:28;101000.28;;;17.79;100.00
60371;BME280;48550;40.588;49.684;2023-04-25T04:32:57;101001.63;;;17.82;100.00
60371;BME280;48550;40.588;49.684;2023-04-25T04:35:23;101008.97;;;17.81;100.00
60371;BME280;48550;40.588;49.684;2023-04-25T04:37:49;101016.00;;;17.82;100.00
60371;BME280;48550;40.588;49.684;2023-04-25T04:40:17;101023.91;;;17.84;100.00
60371;BME280;48550;40.588;49.684;2023-04-25T04:42:44;101023.09;;;17.93;100.00
60371;BME280;48550;40.588;49.684;2023-04-25T04:45:14;101023.09;;;17.93;100.00
60371;BME280;48550;40.588;49.684;2023-04-25T04:47:40;101015.44;;;18.10;100.00
60371;BME280;48550;40.588;49.684;2023-04-25T04:50:07;101020.66;;;17.87;100.00
60371;BME280;48550;40.588;49.684;2023-04-25T04:52:38;101019.84;;;17.91;100.00
60371;BME280;48550;40.588;49.684;2023-04-25T04:55:04;101041.00;;;17.79;100.00
60371;BME280;48550;40.588;49.684;2023-04-25T04:57:31;101030.97;;;17.69;100.00
60371;BME280;48550;40.588;49.684;2023-04-25T04:59:59;101030.13;;;17.54;100.00
60371;BME280;48550;40.588;49.684;2023-04-25T05:02:25;101032.81;;;17.28;100.00
60371;BME280;48550;40.588;49.684;2023-04-25T05:04:51;101036.63;;;17.37;100.00
60371;BME280;48550;40.588;49.684;2023-04-25T05:07:18;101046.38;;;17.33;100.00
60371;BME280;48550;40.588;49.684;2023-04-25T05:09:44;101041.50;;;17.35;100.00
60371;BME280;48550;40.588;49.684;2023-04-25T05:12:10;101042.06;;;17.37;100.00
60371;BME280;48550;40.588;49.684;2023-04-25T05:14:36;101037.97;;;17.40;100.00
60371;BME280;48550;40.588;49.684;2023-04-25T05:17:01;101049.09;;;17.38;100.00
60371;BME280;48550;40.588;49.684;2023-04-25T05:19:30;101052.09;;;17.47;100.00
60371;BME280;48550;40.588;49.684;2023-04-25T05:21:56;101045.59;;;17.53;100.00
60371;BME280;48550;40.588;49.684;2023-04-25T05:24:21;101022.53;;;17.51;100.00
60371;BME280;48550;40.588;49.684;2023-04-25T05:26:47;101026.88;;;17.62;100.00
60371;BME280;48550;40.588;49.684;2023-04-25T05:29:13;100999.72;;;17.62;100.00
60371;BME280;48550;40.588;49.684;2023-04-25T05:31:38;101021.72;;;17.55;100.00
60371;BME280;48550;40.588;49.684;2023-04-25T05:34:04;101025.78;;;17.58;100.00
60371;BME280;48550;40.588;49.684;2023-04-25T05:36:30;101036.13;;;17.71;100.00
60371;BME280;48550;40.588;49.684;2023-04-25T05:38:57;101036.38;;;17.79;100.00
60371;BME280;48550;40.588;49.684;2023-04-25T05:41:23;101045.91;;;17.87;100.00
60371;BME280;48550;40.588;49.684;2023-04-25T05:43:49;101055.09;;;18.22;100.00
60371;BME280;48550;40.588;49.684;2023-04-25T05:46:15;101047.22;;;18.15;100.00
60371;BME280;48550;40.588;49.684;2023-04-25T05:48:44;101058.25;;;18.59;100.00
60371;BME280;48550;40.588;49.684;2023-04-25T05:51:09;101075.97;;;18.41;100.00
60371;BME280;48550;40.588;49.684;2023-04-25T05:53:35;101086.81;;;18.67;100.00
60371;BME280;48550;40.588;49.684;2023-04-25T05:56:01;101105.72;;;18.97;100.00
60371;BME280;48550;40.588;49.684;2023-04-25T05:58:27;101091.38;;;18.82;100.00
60371;BME280;48550;40.588;49.684;2023-04-25T06:00:52;101094.56;;;18.99;100.00
60371;BME280;48550;40.588;49.684;2023-04-25T06:03:18;101099.88;;;18.39;100.00
60371;BME280;48550;40.588;49.684;2023-04-25T06:05:44;101105.25;;;18.80;100.00
60371;BME280;48550;40.588;49.684;2023-04-25T06:08:10;101108.00;;;18.70;100.00
60371;BME280;48550;40.588;49.684;2023-04-25T06:10:36;101109.13;;;19.23;100.00
60371;BME280;48550;40.588;49.684;2023-04-25T06:13:02;101125.84;;;18.96;100.00
60371;BME280;48550;40.588;49.684;2023-04-25T06:15:28;101122.50;;;19.15;100.00
60371;BME280;48550;40.588;49.684;2023-04-25T06:17:54;101124.84;;;19.31;100.00
60371;BME280;48550;40.588;49.684;2023-04-25T06:20:20;101140.00;;;20.26;99.10
60371;BME280;48550;40.588;49.684;2023-04-25T06:22:49;101153.78;;;20.06;93.15
60371;BME280;48550;40.588;49.684;2023-04-25T06:25:15;101159.13;;;21.27;78.95
60371;BME280;48550;40.588;49.684;2023-04-25T06:27:41;101184.88;;;21.63;75.37
60371;BME280;48550;40.588;49.684;2023-04-25T06:30:07;101173.47;;;21.94;69.64
60371;BME280;48550;40.588;49.684;2023-04-25T06:32:33;101187.72;;;21.53;72.34
60371;BME280;48550;40.588;49.684;2023-04-25T06:35:00;101186.22;;;20.99;80.99
60371;BME280;48550;40.588;49.684;2023-04-25T06:37:26;101193.41;;;20.61;83.88
60371;BME280;48550;40.588;49.684;2023-04-25T06:39:51;101203.81;;;19.86;95.73
60371;BME280;48550;40.588;49.684;2023-04-25T06:42:17;101193.94;;;19.46;100.00
60371;BME280;48550;40.588;49.684;2023-04-25T06:44:43;101193.72;;;19.27;100.00
60371;BME280;48550;40.588;49.684;2023-04-25T06:47:09;101195.94;;;19.79;100.00
60371;BME280;48550;40.588;49.684;2023-04-25T06:49:34;101202.28;;;20.48;91.20
60371;BME280;48550;40.588;49.684;2023-04-25T06:52:00;101210.88;;;21.79;75.43
60371;BME280;48550;40.588;49.684;2023-04-25T06:54:26;101213.75;;;21.69;76.53
60371;BME280;48550;40.588;49.684;2023-04-25T06:56:55;101209.78;;;21.14;81.07
60371;BME280;48550;40.588;49.684;2023-04-25T06:59:21;101194.69;;;20.69;83.80
60371;BME280;48550;40.588;49.684;2023-04-25T07:01:46;101187.59;;;20.97;81.87
60371;BME280;48550;40.588;49.684;2023-04-25T07:04:12;101199.00;;;20.12;90.46
60371;BME280;48550;40.588;49.684;2023-04-25T07:06:38;101187.56;;;19.01;100.00
60371;BME280;48550;40.588;49.684;2023-04-25T07:09:08;101196.44;;;19.32;100.00
60371;BME280;48550;40.588;49.684;2023-04-25T07:11:35;101209.25;;;19.86;100.00
60371;BME280;48550;40.588;49.684;2023-04-25T07:14:01;101213.69;;;19.72;100.00
60371;BME280;48550;40.588;49.684;2023-04-25T07:16:27;101216.91;;;20.86;83.72
60371;BME280;48550;40.588;49.684;2023-04-25T07:18:53;101206.16;;;21.42;78.53
60371;BME280;48550;40.588;49.684;2023-04-25T07:21:18;101209.56;;;21.53;78.05
60371;BME280;48550;40.588;49.684;2023-04-25T07:23:44;101209.25;;;20.59;85.04
60371;BME280;48550;40.588;49.684;2023-04-25T07:26:10;101211.88;;;20.98;77.57
60371;BME280;48550;40.588;49.684;2023-04-25T07:28:36;101220.78;;;20.17;89.83
60371;BME280;48550;40.588;49.684;2023-04-25T07:31:01;101214.88;;;19.55;98.77
60371;BME280;48550;40.588;49.684;2023-04-25T07:33:28;101210.09;;;19.17;100.00
60371;BME280;48550;40.588;49.684;2023-04-25T07:35:54;101220.25;;;18.86;100.00
60371;BME280;48550;40.588;49.684;2023-04-25T07:38:21;101230.03;;;18.92;100.00
60371;BME280;48550;40.588;49.684;2023-04-25T07:40:49;101229.16;;;19.12;100.00
60371;BME280;48550;40.588;49.684;2023-04-25T07:43:15;101224.28;;;19.03;100.00
60371;BME280;48550;40.588;49.684;2023-04-25T07:45:43;101224.00;;;19.05;100.00
60371;BME280;48550;40.588;49.684;2023-04-25T07:48:08;101229.34;;;19.46;100.00
60371;BME280;48550;40.588;49.684;2023-04-25T07:50:35;101222.06;;;19.21;100.00
60371;BME280;48550;40.588;49.684;2023-04-25T07:53:01;101215.41;;;18.67;100.00
60371;BME280;48550;40.588;49.684;2023-04-25T07:55:26;101219.47;;;18.80;100.00
60371;BME280;48550;40.588;49.684;2023-04-25T07:57:52;101209.13;;;18.52;100.00
60371;BME280;48550;40.588;49.684;2023-04-25T08:00:18;101196.34;;;18.52;100.00
60371;BME280;48550;40.588;49.684;2023-04-25T08:02:44;101200.72;;;18.63;100.00
60371;BME280;48550;40.588;49.684;2023-04-25T08:05:10;101209.13;;;18.77;100.00
60371;BME280;48550;40.588;49.684;2023-04-25T08:07:40;101213.78;;;18.66;100.00
60371;BME280;48550;40.588;49.684;2023-04-25T08:10:07;101196.09;;;18.59;100.00
60371;BME280;48550;40.588;49.684;2023-04-25T08:12:33;101202.38;;;18.64;100.00
60371;BME280;48550;40.588;49.684;2023-04-25T08:14:59;101198.25;;;18.52;100.00
60371;BME280;48550;40.588;49.684;2023-04-25T08:17:25;101201.25;;;18.70;100.00
60371;BME280;48550;40.588;49.684;2023-04-25T08:19:50;101204.78;;;18.76;100.00
60371;BME280;48550;40.588;49.684;2023-04-25T08:22:16;101199.88;;;18.37;100.00
60371;BME280;48550;40.588;49.684;2023-04-25T08:24:41;101201.50;;;18.38;100.00
60371;BME280;48550;40.588;49.684;2023-04-25T08:27:07;101194.19;;;18.29;100.00
60371;BME280;48550;40.588;49.684;2023-04-25T08:29:34;101192.28;;;18.19;100.00
60371;BME280;48550;40.588;49.684;2023-04-25T08:32:00;101188.47;;;18.25;100.00
60371;BME280;48550;40.588;49.684;2023-04-25T08:34:26;101184.94;;;18.45;100.00
60371;BME280;48550;40.588;49.684;2023-04-25T08:36:52;101177.88;;;18.44;100.00
60371;BME280;48550;40.588;49.684;2023-04-25T08:39:18;101171.91;;;18.37;100.00
60371;BME280;48550;40.588;49.684;2023-04-25T08:41:44;101155.34;;;18.28;100.00
60371;BME280;48550;40.588;49.684;2023-04-25T08:44:11;101162.13;;;18.66;100.00
60371;BME280;48550;40.588;49.684;2023-04-25T08:46:40;101145.22;;;18.80;100.00
60371;BME280;48550;40.588;49.684;2023-04-25T08:49:07;101138.06;;;19.04;100.00
60371;BME280;48550;40.588;49.684;2023-04-25T08:51:36;101129.28;;;19.17;100.00
60371;BME280;48550;40.588;49.684;2023-04-25T08:54:12;101131.78;;;19.09;100.00
60371;BME280;48550;40.588;49.684;2023-04-25T08:56:44;101134.53;;;19.03;100.00
60371;BME280;48550;40.588;49.684;2023-04-25T08:59:11;101118.00;;;18.85;100.00
60371;BME280;48550;40.588;49.684;2023-04-25T09:01:37;101123.16;;;18.86;100.00
60371;BME280;48550;40.588;49.684;2023-04-25T09:04:03;101129.34;;;19.07;100.00
60371;BME280;48550;40.588;49.684;2023-04-25T09:06:29;101118.38;;;19.22;100.00
60371;BME280;48550;40.588;49.684;2023-04-25T09:09:05;101115.81;;;18.92;100.00
60371;BME280;48550;40.588;49.684;2023-04-25T09:11:32;101098.91;;;18.95;100.00
60371;BME280;48550;40.588;49.684;2023-04-25T09:14:33;101096.00;;;18.81;100.00
60371;BME280;48550;40.588;49.684;2023-04-25T09:17:03;101076.81;;;18.27;100.00
60371;BME280;48550;40.588;49.684;2023-04-25T09:19:31;101076.78;;;18.37;100.00
60371;BME280;48550;40.588;49.684;2023-04-25T09:22:00;101076.28;;;18.15;100.00
60371;BME280;48550;40.588;49.684;2023-04-25T09:24:43;101076.53;;;18.23;100.00
60371;BME280;48550;40.588;49.684;2023-04-25T09:27:12;101086.88;;;18.16;100.00
60371;BME280;48550;40.588;49.684;2023-04-25T09:29:40;101081.19;;;18.13;100.00
60371;BME280;48550;40.588;49.684;2023-04-25T09:32:20;101091.50;;;18.16;100.00
60371;BME280;48550;40.588;49.684;2023-04-25T09:34:55;101093.88;;;18.42;100.00
60371;BME280;48550;40.588;49.684;2023-04-25T09:37:22;101111.81;;;18.49;100.00
60371;BME280;48550;40.588;49.684;2023-04-25T09:39:51;101104.78;;;18.27;100.00
60371;BME280;48550;40.588;49.684;2023-04-25T09:42:17;101099.03;;;18.44;100.00
60371;BME280;48550;40.588;49.684;2023-04-25T09:44:46;101095.28;;;18.30;100.00
60371;BME280;48550;40.588;49.684;2023-04-25T09:47:13;101101.47;;;18.61;100.00
60371;BME280;48550;40.588;49.684;2023-04-25T09:49:42;101110.75;;;18.65;100.00
60371;BME280;48550;40.588;49.684;2023-04-25T09:52:08;101120.75;;;18.75;100.00
60371;BME280;48550;40.588;49.684;2023-04-25T09:54:34;101104.41;;;18.85;100.00
60371;BME280;48550;40.588;49.684;2023-04-25T09:57:11;101114.22;;;18.81;100.00
60371;BME280;48550;40.588;49.684;2023-04-25T09:59:43;101125.66;;;18.52;100.00
60371;BME280;48550;40.588;49.684;2023-04-25T10:02:10;101098.50;;;18.47;100.00
60371;BME280;48550;40.588;49.684;2023-04-25T10:04:37;101101.53;;;18.30;100.00
60371;BME280;48550;40.588;49.684;2023-04-25T10:07:05;101123.53;;;18.29;100.00
60371;BME280;48550;40.588;49.684;2023-04-25T10:09:32;101144.22;;;18.04;100.00
60371;BME280;48550;40.588;49.684;2023-04-25T10:12:01;101143.94;;;18.01;100.00
60371;BME280;48550;40.588;49.684;2023-04-25T10:14:30;101140.91;;;17.82;100.00
60371;BME280;48550;40.588;49.684;2023-04-25T10:16:58;101154.75;;;17.70;100.00
60371;BME280;48550;40.588;49.684;2023-04-25T10:19:25;101154.41;;;17.52;100.00
60371;BME280;48550;40.588;49.684;2023-04-25T10:22:02;101121.84;;;17.41;100.00
60371;BME280;48550;40.588;49.684;2023-04-25T10:24:28;101113.63;;;17.11;100.00
60371;BME280;48550;40.588;49.684;2023-04-25T10:26:56;101113.56;;;17.01;100.00
60371;BME280;48550;40.588;49.684;2023-04-25T10:29:23;101112.06;;;16.73;100.00
60371;BME280;48550;40.588;49.684;2023-04-25T10:31:49;101130.78;;;16.74;100.00
60371;BME280;48550;40.588;49.684;2023-04-25T10:34:16;101137.81;;;16.70;100.00
60371;BME280;48550;40.588;49.684;2023-04-25T10:36:42;101130.97;;;16.63;100.00
60371;BME280;48550;40.588;49.684;2023-04-25T10:39:12;101110.44;;;16.72;100.00
60371;BME280;48550;40.588;49.684;2023-04-25T10:41:52;101102.63;;;16.80;100.00
60371;BME280;48550;40.588;49.684;2023-04-25T10:44:18;101113.78;;;16.94;100.00
60371;BME280;48550;40.588;49.684;2023-04-25T10:46:44;101114.69;;;17.10;100.00
60371;BME280;48550;40.588;49.684;2023-04-25T10:49:28;101134.84;;;17.44;100.00
60371;BME280;48550;40.588;49.684;2023-04-25T10:52:25;101131.06;;;17.45;100.00
60371;BME280;48550;40.588;49.684;2023-04-25T10:54:56;101125.38;;;17.47;100.00
60371;BME280;48550;40.588;49.684;2023-04-25T10:59:59;101139.69;;;17.22;100.00
60371;BME280;48550;40.588;49.684;2023-04-25T11:02:28;101159.38;;;17.02;100.00
60371;BME280;48550;40.588;49.684;2023-04-25T11:04:54;101169.13;;;16.98;100.00
60371;BME280;48550;40.588;49.684;2023-04-25T11:07:33;101179.28;;;17.18;100.00
60371;BME280;48550;40.588;49.684;2023-04-25T11:10:04;101176.69;;;17.54;100.00
60371;BME280;48550;40.588;49.684;2023-04-25T11:12:31;101189.84;;;17.92;100.00
60371;BME280;48550;40.588;49.684;2023-04-25T11:15:07;101184.94;;;18.20;100.00
60371;BME280;48550;40.588;49.684;2023-04-25T11:17:33;101177.34;;;18.32;100.00
60371;BME280;48550;40.588;49.684;2023-04-25T11:20:00;101165.38;;;17.92;100.00
60371;BME280;48550;40.588;49.684;2023-04-25T11:22:27;101166.09;;;17.62;100.00
60371;BME280;48550;40.588;49.684;2023-04-25T11:24:53;101181.56;;;17.52;100.00
60371;BME280;48550;40.588;49.684;2023-04-25T11:27:19;101190.16;;;17.28;100.00
60371;BME280;48550;40.588;49.684;2023-04-25T11:29:46;101194.28;;;17.41;100.00
60371;BME280;48550;40.588;49.684;2023-04-25T11:32:15;101199.72;;;17.46;100.00
60371;BME280;48550;40.588;49.684;2023-04-25T11:34:43;101199.91;;;17.19;100.00
60371;BME280;48550;40.588;49.684;2023-04-25T11:37:10;101203.97;;;17.22;100.00
60371;BME280;48550;40.588;49.684;2023-04-25T11:39:37;101196.59;;;17.12;100.00
60371;BME280;48550;40.588;49.684;2023-04-25T11:42:04;101197.72;;;17.21;100.00
60371;BME280;48550;40.588;49.684;2023-04-25T11:44:31;101207.28;;;16.87;100.00
60371;BME280;48550;40.588;49.684;2023-04-25T11:46:56;101221.84;;;16.70;100.00
60371;BME280;48550;40.588;49.684;2023-04-25T11:49:22;101219.28;;;16.27;100.00
60371;BME280;48550;40.588;49.684;2023-04-25T11:51:50;101214.03;;;16.42;100.00
60371;BME280;48550;40.588;49.684;2023-04-25T11:54:16;101210.22;;;16.43;100.00
60371;BME280;48550;40.588;49.684;2023-04-25T11:56:42;101226.81;;;16.19;100.00
60371;BME280;48550;40.588;49.684;2023-04-25T11:59:09;101226.50;;;16.16;100.00
60371;BME280;48550;40.588;49.684;2023-04-25T12:01:39;101221.00;;;16.06;100.00
60371;BME280;48550;40.588;49.684;2023-04-25T12:04:12;101210.25;;;16.16;100.00
60371;BME280;48550;40.588;49.684;2023-04-25T12:06:39;101204.06;;;16.20;100.00
60371;BME280;48550;40.588;49.684;2023-04-25T12:09:08;101187.34;;;16.29;100.00
60371;BME280;48550;40.588;49.684;2023-04-25T12:11:47;101181.09;;;16.28;100.00
60371;BME280;48550;40.588;49.684;2023-04-25T12:14:24;101179.06;;;16.40;100.00
60371;BME280;48550;40.588;49.684;2023-04-25T12:16:51;101183.13;;;16.43;100.00
60371;BME280;48550;40.588;49.684;2023-04-25T12:19:18;101187.31;;;16.61;100.00
60371;BME280;48550;40.588;49.684;2023-04-25T12:21:44;101189.84;;;16.67;100.00
60371;BME280;48550;40.588;49.684;2023-04-25T12:24:18;101184.81;;;16.49;100.00
60371;BME280;48550;40.588;49.684;2023-04-25T12:26:50;101189.78;;;16.62;100.00
60371;BME280;48550;40.588;49.684;2023-04-25T12:29:22;101197.47;;;16.75;100.00
60371;BME280;48550;40.588;49.684;2023-04-25T12:31:50;101195.72;;;17.01;100.00
60371;BME280;48550;40.588;49.684;2023-04-25T12:34:17;101202.59;;;17.14;100.00